TimeAEST,TemperatureF,Dew PointF,Humidity,Sea Level PressureIn,VisibilityMPH,Wind Direction,Wind SpeedMPH,Gust SpeedMPH,PrecipitationIn,Events,Conditions,WindDirDegrees,DateUTC
12:00 AM,77,68,67,29.96,,ESE,19.6,,,,,110,2012-12-13 14:00:00
12:00 AM,77.0,68.0,74,29.95,-9999.0,ESE,19.6,-,N/A,,Unknown,110,2012-12-13 14:00:00
12:30 AM,77.0,66.2,69,29.95,-9999.0,ESE,24.2,-,N/A,,Unknown,110,2012-12-13 14:30:00
1:00 AM,77.0,66.2,69,29.95,-9999.0,ESE,21.9,-,N/A,,Unknown,120,2012-12-13 15:00:00
1:30 AM,77.0,66.2,69,29.95,-9999.0,ESE,18.4,-,N/A,,Unknown,110,2012-12-13 15:30:00
2:00 AM,77.0,68.0,74,29.92,-9999.0,ESE,17.3,-,N/A,,Unknown,120,2012-12-13 16:00:00
2:30 AM,77.0,66.2,69,29.92,-9999.0,ESE,19.6,-,N/A,,Unknown,120,2012-12-13 16:30:00
3:00 AM,75,67,70,29.92,,East,19.6,,,,,100,2012-12-13 17:00:00
3:00 AM,75.2,68.0,78,29.92,-9999.0,East,19.6,-,N/A,,Unknown,100,2012-12-13 17:00:00
3:30 AM,75.2,68.0,78,29.92,-9999.0,ESE,18.4,-,N/A,,Unknown,120,2012-12-13 17:30:00
4:00 AM,75.2,66.2,73,29.92,-9999.0,SE,18.4,-,N/A,,Unknown,130,2012-12-13 18:00:00
4:30 AM,77.0,66.2,69,29.92,-9999.0,ESE,20.7,-,N/A,,Unknown,120,2012-12-13 18:30:00
5:00 AM,77.0,66.2,69,29.92,-9999.0,ESE,20.7,-,N/A,,Unknown,120,2012-12-13 19:00:00
5:30 AM,75.2,66.2,73,29.92,-9999.0,ESE,19.6,-,N/A,,Unknown,120,2012-12-13 19:30:00
6:00 AM,76,65,61,29.93,,ESE,18.4,,,,,120,2012-12-13 20:00:00
6:00 AM,77.0,64.4,65,29.92,-9999.0,ESE,18.4,-,N/A,,Unknown,120,2012-12-13 20:00:00
6:30 AM,77.0,64.4,65,29.95,-9999.0,ESE,20.7,-,N/A,,Unknown,120,2012-12-13 20:30:00
7:00 AM,78.8,66.2,65,29.95,-9999.0,SE,24.2,-,N/A,,Unknown,130,2012-12-13 21:00:00
7:30 AM,77.0,62.6,61,29.95,-9999.0,SE,21.9,-,N/A,,Unknown,130,2012-12-13 21:30:00
8:00 AM,80.6,62.6,54,29.98,-9999.0,SE,19.6,-,N/A,,Unknown,130,2012-12-13 22:00:00
8:30 AM,82.4,64.4,54,29.98,-9999.0,ESE,18.4,-,N/A,,Unknown,120,2012-12-13 22:30:00
10:00 AM,82.4,60.8,48,29.98,-9999.0,SE,17.3,-,N/A,,Unknown,140,2012-12-14 00:00:00
10:30 AM,82.4,62.6,51,29.98,-9999.0,SE,16.1,-,N/A,,Unknown,140,2012-12-14 00:30:00
11:00 AM,84.2,59.0,42,29.95,-9999.0,SSE,13.8,-,N/A,,Unknown,150,2012-12-14 01:00:00
11:30 AM,82.4,60.8,48,29.95,-9999.0,SSE,13.8,-,N/A,,Unknown,150,2012-12-14 01:30:00
12:00 PM,83,60,36,29.95,,SE,13.8,,,,,140,2012-12-14 02:00:00
12:00 PM,82.4,60.8,48,29.95,-9999.0,SE,13.8,-,N/A,,Unknown,140,2012-12-14 02:00:00
12:30 PM,84.2,62.6,48,29.92,-9999.0,SE,12.7,-,N/A,,Unknown,140,2012-12-14 02:30:00
1:00 PM,82.4,66.2,58,29.92,-9999.0,SE,12.7,-,N/A,,Unknown,140,2012-12-14 03:00:00
1:30 PM,82.4,64.4,54,29.92,-9999.0,East,17.3,-,N/A,,Unknown,100,2012-12-14 03:30:00
2:00 PM,80.6,64.4,58,29.89,-9999.0,East,18.4,-,N/A,,Unknown,90,2012-12-14 04:00:00
2:30 PM,80.6,62.6,54,29.89,-9999.0,East,20.7,-,N/A,,Unknown,90,2012-12-14 04:30:00
3:00 PM,79,64,50,29.87,,East,19.6,,,,,100,2012-12-14 05:00:00
3:00 PM,78.8,64.4,61,29.86,-9999.0,East,19.6,-,N/A,,Unknown,90,2012-12-14 05:00:00
3:30 PM,78.8,64.4,61,29.86,-9999.0,East,18.4,-,N/A,,Unknown,90,2012-12-14 05:30:00
4:00 PM,78.8,60.8,54,29.86,-9999.0,East,21.9,-,N/A,,Unknown,90,2012-12-14 06:00:00
4:30 PM,78.8,62.6,57,29.83,-9999.0,East,20.7,-,N/A,,Unknown,90,2012-12-14 06:30:00
5:00 PM,78.8,62.6,57,29.83,-9999.0,East,24.2,-,N/A,,Unknown,90,2012-12-14 07:00:00
5:30 PM,77.0,62.6,61,29.83,-9999.0,East,24.2,-,N/A,,Unknown,90,2012-12-14 07:30:00
6:00 PM,77.0,64.4,65,29.83,-9999.0,East,20.7,-,N/A,,Unknown,90,2012-12-14 08:00:00
6:30 PM,77.0,64.4,65,29.86,-9999.0,East,19.6,-,N/A,,Unknown,90,2012-12-14 08:30:00
7:00 PM,77.0,64.4,65,29.86,-9999.0,East,17.3,-,N/A,,Unknown,90,2012-12-14 09:00:00
7:30 PM,77.0,64.4,65,29.86,-9999.0,East,17.3,-,N/A,,Unknown,90,2012-12-14 09:30:00
8:00 PM,77.0,64.4,65,29.89,-9999.0,East,15.0,-,N/A,,Unknown,100,2012-12-14 10:00:00
8:30 PM,77.0,66.2,69,29.89,-9999.0,ESE,12.7,-,N/A,,Unknown,110,2012-12-14 10:30:00
9:00 PM,77,64,55,29.89,,East,13.8,,,,,100,2012-12-14 11:00:00
9:00 PM,77.0,64.4,65,29.89,-9999.0,East,13.8,-,N/A,,Unknown,100,2012-12-14 11:00:00
9:30 PM,77.0,62.6,61,29.89,-9999.0,East,13.8,-,N/A,,Unknown,100,2012-12-14 11:30:00
10:00 PM,77.0,64.4,65,29.89,-9999.0,ESE,15.0,-,N/A,,Unknown,110,2012-12-14 12:00:00
10:30 PM,77.0,62.6,61,29.89,-9999.0,ESE,13.8,-,N/A,,Unknown,110,2012-12-14 12:30:00
11:00 PM,77.0,62.6,61,29.89,-9999.0,ESE,15.0,-,N/A,,Unknown,110,2012-12-14 13:00:00
11:30 PM,77.0,62.6,61,29.89,-9999.0,ESE,13.8,-,N/A,,Unknown,110,2012-12-14 13:30:00